createdAt,value
2022-12-24T00:01:06.496Z,5.47
2022-12-24T00:03:35.083Z,5.30
2022-12-24T00:06:10.833Z,5.32
2022-12-24T00:08:37.850Z,4.70
2022-12-24T00:11:05.107Z,4.20
2022-12-24T00:13:32.094Z,4.90
2022-12-24T00:15:59.528Z,4.68
2022-12-24T00:18:26.988Z,3.92
2022-12-24T00:20:54.504Z,4.18
2022-12-24T00:23:22.067Z,4.68
2022-12-24T00:25:49.179Z,5.07
2022-12-24T00:28:17.116Z,4.57
2022-12-24T00:30:44.486Z,4.75
2022-12-24T00:33:11.679Z,5.20
2022-12-24T00:35:40.204Z,4.50
2022-12-24T00:40:35.137Z,4.28
2022-12-24T00:43:02.059Z,4.50
2022-12-24T00:45:29.178Z,3.85
2022-12-24T00:47:56.120Z,3.50
2022-12-24T00:50:23.322Z,4.50
2022-12-24T00:52:50.303Z,4.03
2022-12-24T00:55:17.604Z,4.82
2022-12-24T00:57:44.551Z,4.05
2022-12-24T01:00:11.844Z,3.95
2022-12-24T01:02:39.008Z,3.30
2022-12-24T01:05:12.054Z,3.72
2022-12-24T01:07:42.180Z,3.20
2022-12-24T01:10:11.078Z,3.83
2022-12-24T01:12:38.374Z,3.67
2022-12-24T01:15:05.930Z,2.50
2022-12-24T01:17:34.597Z,3.58
2022-12-24T01:20:01.961Z,2.78
2022-12-24T01:22:29.023Z,3.00
2022-12-24T01:24:56.017Z,2.35
2022-12-24T01:27:23.488Z,2.67
2022-12-24T01:29:50.555Z,2.58
2022-12-24T01:32:17.798Z,1.90
2022-12-24T01:34:44.763Z,2.10
2022-12-24T01:37:11.693Z,2.30
2022-12-24T01:39:38.696Z,1.92
2022-12-24T01:42:41.945Z,1.60
2022-12-24T01:45:45.059Z,2.17
2022-12-24T01:48:27.551Z,1.65
2022-12-24T01:51:01.852Z,2.03
2022-12-24T01:53:30.396Z,1.98
2022-12-24T01:55:58.348Z,1.73
2022-12-24T01:58:27.002Z,2.03
2022-12-24T02:00:54.147Z,1.80
2022-12-24T02:03:21.577Z,0.98
2022-12-24T02:05:52.506Z,1.33
2022-12-24T02:08:19.976Z,1.30
2022-12-24T02:10:48.298Z,1.33
2022-12-24T02:13:18.760Z,1.60
2022-12-24T02:16:02.547Z,1.77
2022-12-24T02:18:55.300Z,1.52
2022-12-24T02:21:25.093Z,1.48
2022-12-24T02:24:01.121Z,1.50
2022-12-24T02:26:57.589Z,1.83
2022-12-24T02:29:38.432Z,1.98
2022-12-24T02:32:24.451Z,2.13
2022-12-24T02:35:02.675Z,1.90
2022-12-24T02:37:37.766Z,2.88
2022-12-24T02:40:16.628Z,3.75
2022-12-24T02:42:48.405Z,3.22
2022-12-24T02:45:22.787Z,2.92
2022-12-24T02:47:52.061Z,3.53
2022-12-24T02:50:19.485Z,4.03
2022-12-24T02:52:47.940Z,3.05
2022-12-24T02:55:21.719Z,3.92
2022-12-24T02:58:06.971Z,3.63
2022-12-24T03:00:47.957Z,3.20
2022-12-24T03:03:38.427Z,3.40
2022-12-24T03:06:44.856Z,3.42
2022-12-24T03:09:17.985Z,3.17
2022-12-24T03:11:52.212Z,2.90
2022-12-24T03:14:20.116Z,2.83
2022-12-24T03:16:47.512Z,2.90
2022-12-24T03:19:14.572Z,2.95
2022-12-24T03:21:42.766Z,2.38
2022-12-24T03:24:11.070Z,2.63
2022-12-24T03:26:39.640Z,2.13
2022-12-24T03:31:48.946Z,1.60
2022-12-24T03:34:16.812Z,2.13
2022-12-24T03:36:44.659Z,1.60
2022-12-24T03:39:11.779Z,2.17
2022-12-24T03:41:39.458Z,1.52
2022-12-24T03:44:06.423Z,1.43
2022-12-24T03:46:33.434Z,1.40
2022-12-24T03:49:00.351Z,1.48
2022-12-24T03:51:28.558Z,1.17
2022-12-24T03:53:57.103Z,1.70
2022-12-24T03:58:51.552Z,1.80
2022-12-24T04:01:18.840Z,1.10
2022-12-24T04:03:46.133Z,0.90
2022-12-24T04:06:16.061Z,1.30
2022-12-24T04:08:43.133Z,1.00
2022-12-24T04:11:12.972Z,1.48
2022-12-24T04:13:39.965Z,1.20
2022-12-24T04:16:12.290Z,1.25
2022-12-24T04:18:40.449Z,1.13
2022-12-24T04:21:08.898Z,1.13
2022-12-24T04:23:37.570Z,1.70
2022-12-24T04:28:33.871Z,2.28
2022-12-24T04:31:04.875Z,1.90
2022-12-24T04:33:32.185Z,2.22
2022-12-24T04:36:00.011Z,1.48
2022-12-24T04:38:27.521Z,1.50
2022-12-24T04:41:05.332Z,1.30
2022-12-24T04:43:32.740Z,2.00
2022-12-24T04:46:07.934Z,1.40
2022-12-24T04:48:35.070Z,1.30
2022-12-24T04:51:03.895Z,1.55
2022-12-24T04:53:31.636Z,1.42
2022-12-24T04:55:59.076Z,1.50
2022-12-24T04:58:26.403Z,1.50
2022-12-24T05:00:54.090Z,1.30
2022-12-24T05:03:21.558Z,1.65
2022-12-24T05:05:48.682Z,1.90
2022-12-24T05:08:15.700Z,2.17
2022-12-24T05:10:42.678Z,2.40
2022-12-24T05:13:09.636Z,1.98
2022-12-24T05:15:36.738Z,2.30
2022-12-24T05:18:03.881Z,2.03
2022-12-24T05:20:30.819Z,1.90
2022-12-24T05:23:16.153Z,1.50
2022-12-24T05:26:01.744Z,1.67
2022-12-24T05:28:28.783Z,1.20
2022-12-24T05:30:55.841Z,1.27
2022-12-24T05:33:22.816Z,1.70
2022-12-24T05:35:52.150Z,1.45
2022-12-24T05:38:19.338Z,1.55
2022-12-24T05:40:47.422Z,1.83
2022-12-24T05:43:14.396Z,2.30
2022-12-24T05:45:41.414Z,1.60
2022-12-24T05:48:08.377Z,1.25
2022-12-24T05:50:36.690Z,1.35
2022-12-24T05:53:07.583Z,1.38
2022-12-24T05:55:34.745Z,1.70
2022-12-24T05:58:01.822Z,1.45
2022-12-24T06:00:28.849Z,1.60
2022-12-24T06:02:55.924Z,1.58
2022-12-24T06:05:22.969Z,1.52
2022-12-24T06:07:50.128Z,1.20
2022-12-24T06:10:17.276Z,1.10
2022-12-24T06:12:44.214Z,1.33
2022-12-24T06:15:11.547Z,1.63
2022-12-24T06:17:38.678Z,1.08
2022-12-24T06:20:06.731Z,1.30
2022-12-24T06:22:33.741Z,1.50
2022-12-24T06:25:00.820Z,1.40
2022-12-24T06:27:27.777Z,1.10
2022-12-24T06:29:54.789Z,1.23
2022-12-24T06:32:21.831Z,1.20
2022-12-24T06:34:49.125Z,1.10
2022-12-24T06:37:18.456Z,1.38
2022-12-24T06:39:46.460Z,1.58
2022-12-24T06:42:16.759Z,1.05
2022-12-24T06:44:43.789Z,1.90
2022-12-24T06:47:10.764Z,1.25
2022-12-24T06:49:37.735Z,1.20
2022-12-24T06:52:04.931Z,1.10
2022-12-24T06:54:31.903Z,1.20
2022-12-24T06:56:58.852Z,1.17
2022-12-24T06:59:25.841Z,1.25
2022-12-24T07:01:52.939Z,1.00
2022-12-24T07:04:20.815Z,1.45
2022-12-24T07:06:48.201Z,1.08
2022-12-24T07:09:15.322Z,1.08
2022-12-24T07:11:42.397Z,1.33
2022-12-24T07:14:09.598Z,1.20
2022-12-24T07:16:36.822Z,1.25
2022-12-24T07:19:04.053Z,1.33
2022-12-24T07:21:31.234Z,1.65
2022-12-24T07:23:58.582Z,1.17
2022-12-24T07:26:25.723Z,1.10
2022-12-24T07:28:52.747Z,1.42
2022-12-24T07:31:19.764Z,1.35
2022-12-24T07:33:46.808Z,1.30
2022-12-24T07:36:22.006Z,1.58
2022-12-24T07:38:49.324Z,1.33
2022-12-24T07:41:16.278Z,1.30
2022-12-24T07:43:43.328Z,1.40
2022-12-24T07:46:10.428Z,1.38
2022-12-24T07:48:37.526Z,1.60
2022-12-24T07:51:04.665Z,1.70
2022-12-24T07:53:32.165Z,1.83
2022-12-24T07:55:59.734Z,2.00
2022-12-24T07:58:26.829Z,1.67
2022-12-24T08:01:00.929Z,2.10
2022-12-24T08:03:28.266Z,1.65
2022-12-24T08:05:55.555Z,2.17
2022-12-24T08:08:22.615Z,2.20
2022-12-24T08:10:49.729Z,2.30
2022-12-24T08:13:17.715Z,2.25
2022-12-24T08:15:45.358Z,1.85
2022-12-24T08:18:12.851Z,1.63
2022-12-24T08:20:40.605Z,2.55
2022-12-24T08:23:08.424Z,2.20
2022-12-24T08:25:35.732Z,2.70
2022-12-24T08:28:02.989Z,2.22
2022-12-24T08:30:30.078Z,2.17
2022-12-24T08:32:57.250Z,2.33
2022-12-24T08:35:24.270Z,2.25
2022-12-24T08:37:51.271Z,2.53
2022-12-24T08:40:18.269Z,1.85
2022-12-24T08:42:45.412Z,2.00
2022-12-24T08:45:12.524Z,1.98
2022-12-24T08:47:40.284Z,2.67
2022-12-24T08:50:08.221Z,1.87
2022-12-24T08:52:35.304Z,2.30
2022-12-24T08:55:02.607Z,3.58
2022-12-24T08:57:29.993Z,2.53
2022-12-24T08:59:56.982Z,2.33
2022-12-24T09:02:24.167Z,2.72
2022-12-24T09:04:51.441Z,2.13
2022-12-24T09:07:18.760Z,2.33
2022-12-24T09:09:45.745Z,2.80
2022-12-24T09:12:12.759Z,3.22
2022-12-24T09:14:39.747Z,3.38
2022-12-24T09:17:06.835Z,2.70
2022-12-24T09:19:33.977Z,3.13
2022-12-24T09:22:01.008Z,3.20
2022-12-24T09:24:28.182Z,2.83
2022-12-24T09:26:58.017Z,3.47
2022-12-24T09:29:25.779Z,3.10
2022-12-24T09:31:55.264Z,3.58
2022-12-24T09:34:28.307Z,2.70
2022-12-24T09:36:57.573Z,3.10
2022-12-24T09:39:24.565Z,2.25
2022-12-24T09:42:09.460Z,2.92
2022-12-24T09:45:19.213Z,4.03
2022-12-24T09:47:51.382Z,3.65
2022-12-24T09:50:33.559Z,3.38
2022-12-24T09:53:06.699Z,3.35
2022-12-24T09:55:44.235Z,3.10
2022-12-24T09:58:23.822Z,2.30
2022-12-24T10:00:52.725Z,2.25
2022-12-24T10:03:19.925Z,2.63
2022-12-24T10:06:16.940Z,2.50
2022-12-24T10:08:59.007Z,2.50
2022-12-24T10:11:44.833Z,2.30
2022-12-24T10:14:46.197Z,2.35
2022-12-24T10:17:35.697Z,2.78
2022-12-24T10:20:26.894Z,2.05
2022-12-24T10:23:15.415Z,2.90
2022-12-24T10:25:51.793Z,2.00
2022-12-24T10:28:23.895Z,2.47
2022-12-24T10:30:58.484Z,2.53
2022-12-24T10:33:58.324Z,3.22
2022-12-24T10:36:30.303Z,3.20
2022-12-24T10:38:57.958Z,2.10
2022-12-24T10:41:30.412Z,2.57
2022-12-24T10:43:59.307Z,2.70
2022-12-24T10:46:37.919Z,3.28
2022-12-24T10:49:12.642Z,2.92
2022-12-24T10:51:55.131Z,2.10
2022-12-24T10:54:27.329Z,2.45
2022-12-24T10:56:59.956Z,2.20
2022-12-24T10:59:30.662Z,2.38
2022-12-24T11:01:59.962Z,2.80
2022-12-24T11:04:30.405Z,2.63
2022-12-24T11:07:00.796Z,3.47
2022-12-24T11:09:32.039Z,2.60
2022-12-24T11:12:06.901Z,2.85
2022-12-24T11:14:38.707Z,2.50
2022-12-24T11:17:06.388Z,2.90
2022-12-24T11:19:37.194Z,2.97
2022-12-24T11:22:07.342Z,2.00
2022-12-24T11:24:38.424Z,2.38
2022-12-24T11:27:29.755Z,2.85
2022-12-24T11:30:15.549Z,2.78
2022-12-24T11:33:08.267Z,2.60
2022-12-24T11:35:41.063Z,3.03
2022-12-24T11:38:08.063Z,3.88
2022-12-24T11:40:38.895Z,3.20
2022-12-24T11:43:12.845Z,3.10
2022-12-24T11:45:57.609Z,3.03
2022-12-24T11:48:30.821Z,2.55
2022-12-24T11:51:03.315Z,3.40
2022-12-24T11:53:38.097Z,3.28
2022-12-24T11:56:12.985Z,2.78
2022-12-24T11:58:52.591Z,2.90
2022-12-24T12:01:25.658Z,3.38
2022-12-24T12:04:01.757Z,3.25
2022-12-24T12:06:47.064Z,2.20
2022-12-24T12:09:39.055Z,3.20
2022-12-24T12:12:24.990Z,3.20
2022-12-24T12:14:57.205Z,3.10
2022-12-24T12:17:33.423Z,3.30
2022-12-24T12:20:12.294Z,2.95
2022-12-24T12:23:06.584Z,2.78
2022-12-24T12:25:43.204Z,2.85
2022-12-24T12:28:23.944Z,2.83
2022-12-24T12:31:10.385Z,3.30
2022-12-24T12:34:03.916Z,3.28
2022-12-24T12:36:45.393Z,3.13
2022-12-24T12:39:12.413Z,2.50
2022-12-24T12:41:53.916Z,3.10
2022-12-24T12:44:35.539Z,2.50
2022-12-24T12:47:23.790Z,3.28
2022-12-24T12:50:28.595Z,2.67
2022-12-24T12:53:28.576Z,2.90
2022-12-24T12:56:07.409Z,3.80
2022-12-24T12:58:49.062Z,3.28
2022-12-24T13:01:32.850Z,4.03
2022-12-24T13:04:37.929Z,3.03
2022-12-24T13:07:50.259Z,4.38
2022-12-24T13:10:41.894Z,4.88
2022-12-24T13:13:26.945Z,3.38
2022-12-24T13:16:18.718Z,3.78
2022-12-24T13:19:12.575Z,4.18
2022-12-24T13:21:44.469Z,5.03
2022-12-24T13:24:21.300Z,5.78
2022-12-24T13:27:28.267Z,5.65
2022-12-24T13:30:09.246Z,5.18
2022-12-24T13:32:53.802Z,5.72
2022-12-24T13:35:20.811Z,6.30
2022-12-24T13:37:49.037Z,6.35
2022-12-24T13:40:28.433Z,5.20
2022-12-24T13:43:01.628Z,5.43
2022-12-24T13:45:34.373Z,5.47
2022-12-24T13:48:21.718Z,5.22
2022-12-24T13:50:54.261Z,5.40
2022-12-24T13:53:41.448Z,6.30
2022-12-24T13:56:14.554Z,5.30
2022-12-24T13:58:45.304Z,5.85
2022-12-24T14:01:18.701Z,5.43
2022-12-24T14:03:51.215Z,5.47
2022-12-24T14:06:26.311Z,5.10
2022-12-24T14:08:57.283Z,5.72
2022-12-24T14:11:31.338Z,5.40
2022-12-24T14:14:04.619Z,5.20
2022-12-24T14:16:42.256Z,5.95
2022-12-24T14:19:18.496Z,5.13
2022-12-24T14:22:19.028Z,6.45
2022-12-24T14:24:59.087Z,5.95
2022-12-24T14:27:28.947Z,6.00
2022-12-24T14:30:23.292Z,5.57
2022-12-24T14:32:51.968Z,5.40
2022-12-24T14:35:24.338Z,5.40
2022-12-24T14:37:58.879Z,5.60
2022-12-24T14:40:41.645Z,5.68
2022-12-24T14:43:45.405Z,6.05
2022-12-24T14:46:45.128Z,6.80
2022-12-24T14:49:44.095Z,9.63
2022-12-24T14:53:02.875Z,7.00
2022-12-24T14:55:43.623Z,6.40
2022-12-24T14:58:25.794Z,5.05
2022-12-24T15:00:55.656Z,5.00
2022-12-24T15:03:25.767Z,5.20
2022-12-24T15:06:05.390Z,4.18
2022-12-24T15:08:47.267Z,3.65
2022-12-24T15:11:22.954Z,4.60
2022-12-24T15:13:58.152Z,4.35
2022-12-24T15:16:34.204Z,5.40
2022-12-24T15:19:24.107Z,3.75
2022-12-24T15:21:51.335Z,4.55
2022-12-24T15:24:27.534Z,4.03
2022-12-24T15:26:55.836Z,3.25
2022-12-24T15:29:39.643Z,3.67
2022-12-24T15:32:11.870Z,4.13
2022-12-24T15:34:41.890Z,4.30
2022-12-24T15:37:18.508Z,4.38
2022-12-24T15:39:58.051Z,3.92
2022-12-24T15:42:26.305Z,4.97
2022-12-24T15:45:07.573Z,3.97
2022-12-24T15:47:48.255Z,4.72
2022-12-24T15:50:25.232Z,4.35
2022-12-24T15:53:18.608Z,4.45
2022-12-24T15:55:44.061Z,5.22
2022-12-24T15:58:28.920Z,4.75
2022-12-24T16:01:14.417Z,5.13
2022-12-24T16:03:48.938Z,5.18
2022-12-24T16:06:16.072Z,5.55
2022-12-24T16:08:44.560Z,4.70
2022-12-24T16:11:18.782Z,5.05
2022-12-24T16:13:58.098Z,4.80
2022-12-24T16:16:40.371Z,3.80
2022-12-24T16:19:08.525Z,3.83
2022-12-24T16:21:41.222Z,5.53
2022-12-24T17:24:51.733Z,5.35
2022-12-24T17:27:19.296Z,5.88
2022-12-24T17:29:46.463Z,5.68
2022-12-24T17:32:13.529Z,4.68
2022-12-24T17:34:40.549Z,5.80
2022-12-24T17:37:07.738Z,5.32
2022-12-24T17:39:34.771Z,4.32
2022-12-24T17:42:01.869Z,5.22
2022-12-24T17:44:28.841Z,5.00
2022-12-24T17:46:55.940Z,5.43
2022-12-24T17:49:23.069Z,6.53
2022-12-24T17:51:50.126Z,5.75
2022-12-24T17:54:21.455Z,5.50
2022-12-24T17:56:48.503Z,5.80
2022-12-24T17:59:15.917Z,5.32
2022-12-24T18:01:43.100Z,5.22
2022-12-24T18:04:11.192Z,5.43
2022-12-24T18:06:47.202Z,6.45
2022-12-24T18:09:16.392Z,4.97
2022-12-24T18:11:46.487Z,5.10
2022-12-24T18:14:14.343Z,4.72
2022-12-24T18:16:42.168Z,5.43
2022-12-24T18:19:11.659Z,5.30
2022-12-24T18:21:44.036Z,5.53
2022-12-24T18:24:13.049Z,4.47
2022-12-24T18:26:40.445Z,4.82
2022-12-24T18:29:08.931Z,4.97
2022-12-24T18:34:07.187Z,4.38
2022-12-24T18:36:34.273Z,4.82
2022-12-24T18:39:01.481Z,4.80
2022-12-24T18:41:30.640Z,5.93
2022-12-24T18:43:58.741Z,5.57
2022-12-24T18:46:28.527Z,6.78
2022-12-24T18:48:56.509Z,6.05
2022-12-24T18:51:26.413Z,4.95
2022-12-24T18:53:53.460Z,5.43
2022-12-24T18:56:23.191Z,5.00
2022-12-24T18:58:54.217Z,6.40
2022-12-24T19:01:24.288Z,5.85
2022-12-24T19:03:52.509Z,6.60
2022-12-24T19:06:20.888Z,5.93
2022-12-24T19:08:59.097Z,6.13
2022-12-24T19:11:28.979Z,6.57
2022-12-24T19:13:58.110Z,7.10
2022-12-24T19:16:26.322Z,6.70
2022-12-24T19:18:53.534Z,6.70
2022-12-24T19:21:20.841Z,6.30
2022-12-24T19:23:48.266Z,6.90
2022-12-24T19:26:16.755Z,6.32
2022-12-24T19:31:13.944Z,7.68
2022-12-24T19:33:44.027Z,13.43
2022-12-24T19:36:17.834Z,25.33
2022-12-24T19:38:45.020Z,19.67
2022-12-24T19:41:18.584Z,11.25
2022-12-24T19:43:52.785Z,8.00
2022-12-24T19:46:23.540Z,7.40
2022-12-24T19:48:53.496Z,6.35
2022-12-24T19:51:22.504Z,6.38
2022-12-24T19:53:50.005Z,5.97
2022-12-24T19:56:19.146Z,7.50
2022-12-24T19:58:46.312Z,6.10
2022-12-24T20:01:19.586Z,7.07
2022-12-24T20:03:49.927Z,6.55
2022-12-24T20:06:19.537Z,6.70
2022-12-24T20:08:46.862Z,6.47
2022-12-24T20:11:16.675Z,6.30
2022-12-24T20:13:44.052Z,5.07
2022-12-24T20:16:18.598Z,5.53
2022-12-24T20:18:51.896Z,6.35
2022-12-24T20:21:18.997Z,6.80
2022-12-24T20:23:46.000Z,6.90
2022-12-24T20:26:15.017Z,6.30
2022-12-24T20:28:43.102Z,5.63
2022-12-24T20:31:23.392Z,5.82
2022-12-24T20:33:51.121Z,7.18
2022-12-24T20:36:21.810Z,7.10
2022-12-24T20:38:49.241Z,6.57
2022-12-24T20:41:19.012Z,5.80
2022-12-24T20:43:48.739Z,5.57
2022-12-24T20:46:17.750Z,5.82
2022-12-24T20:48:44.856Z,4.88
2022-12-24T20:51:23.110Z,5.93
2022-12-24T20:53:53.078Z,5.32
2022-12-24T20:56:20.240Z,6.25
2022-12-24T20:58:47.735Z,5.00
2022-12-24T21:01:24.393Z,5.50
2022-12-24T21:03:52.713Z,5.47
2022-12-24T21:06:19.967Z,6.15
2022-12-24T21:08:49.775Z,6.03
2022-12-24T21:11:35.189Z,5.32
2022-12-24T21:14:02.381Z,6.95
2022-12-24T21:16:31.291Z,6.22
2022-12-24T21:18:58.467Z,6.20
2022-12-24T21:21:25.591Z,5.20
2022-12-24T21:23:53.039Z,5.53
2022-12-24T21:26:21.496Z,5.25
2022-12-24T21:31:16.437Z,5.13
2022-12-24T21:33:43.806Z,4.78
2022-12-24T21:36:13.008Z,4.95
2022-12-24T21:38:40.325Z,4.65
2022-12-24T21:41:12.927Z,4.70
2022-12-24T21:43:40.290Z,4.25
2022-12-24T21:46:08.411Z,4.60
2022-12-24T21:48:56.141Z,4.18
2022-12-24T21:51:24.679Z,4.20
2022-12-24T21:54:10.253Z,4.60
2022-12-24T21:56:57.561Z,4.55
2022-12-24T21:59:27.227Z,3.88
2022-12-24T22:01:55.721Z,4.35
2022-12-24T22:04:23.386Z,4.40
2022-12-24T22:07:09.293Z,4.15
2022-12-24T22:09:57.019Z,4.00
2022-12-24T22:12:24.713Z,4.32
2022-12-24T22:14:52.097Z,3.50
2022-12-24T22:17:24.714Z,3.63
2022-12-24T22:19:53.138Z,4.35
2022-12-24T22:22:20.597Z,3.87
2022-12-24T22:24:47.713Z,3.42
2022-12-24T22:27:14.763Z,3.83
2022-12-24T22:29:41.732Z,4.20
2022-12-24T22:32:08.941Z,3.65
2022-12-24T22:34:38.172Z,3.85
2022-12-24T22:37:05.408Z,4.03
2022-12-24T22:39:32.491Z,3.08
2022-12-24T22:41:59.634Z,2.70
2022-12-24T22:44:26.845Z,3.08
2022-12-24T22:46:53.944Z,3.60
2022-12-24T22:49:21.104Z,3.97
2022-12-24T22:51:48.176Z,3.35
2022-12-24T22:54:16.105Z,3.75
2022-12-24T22:56:43.292Z,3.10
2022-12-24T22:59:14.009Z,4.38
2022-12-24T23:01:43.568Z,3.00
2022-12-24T23:04:11.696Z,3.65
2022-12-24T23:06:39.194Z,3.40
2022-12-24T23:09:09.313Z,2.47
2022-12-24T23:11:36.608Z,3.22
2022-12-24T23:14:22.592Z,2.47
2022-12-24T23:16:50.024Z,3.15
2022-12-24T23:19:18.351Z,4.22
2022-12-24T23:21:45.367Z,4.90
2022-12-24T23:24:12.420Z,4.50
2022-12-24T23:26:41.044Z,3.47
2022-12-24T23:29:08.055Z,3.28
2022-12-24T23:31:35.182Z,3.47
2022-12-24T23:34:02.378Z,2.92
2022-12-24T23:36:29.570Z,3.50
2022-12-24T23:38:57.654Z,2.78
2022-12-24T23:41:24.661Z,3.03
2022-12-24T23:43:52.077Z,3.50
2022-12-24T23:46:20.401Z,2.72
2022-12-24T23:48:48.021Z,3.25
2022-12-24T23:51:23.049Z,3.75
2022-12-24T23:53:54.346Z,3.35
2022-12-24T23:56:22.188Z,3.72
2022-12-24T23:58:49.246Z,3.25
